sensor_id;sensor_type;location;lat;lon;timestamp;pressure;altitude;pressure_sealevel;temperature;humidity
75886;BME280;64561;44.018;10.144;2024-02-16T00:02:02;102122.44;;;8.40;100.00
75886;BME280;64561;44.018;10.144;2024-02-16T00:04:33;102125.00;;;8.40;100.00
75886;BME280;64561;44.018;10.144;2024-02-16T00:07:00;102110.22;;;8.35;100.00
75886;BME280;64561;44.018;10.144;2024-02-16T00:09:28;102123.31;;;8.41;100.00
75886;BME280;64561;44.018;10.144;2024-02-16T00:11:55;102115.47;;;8.38;100.00
75886;BME280;64561;44.018;10.144;2024-02-16T00:14:22;102123.47;;;8.44;100.00
75886;BME280;64561;44.018;10.144;2024-02-16T00:16:50;102124.47;;;8.46;100.00
75886;BME280;64561;44.018;10.144;2024-02-16T00:19:17;102129.88;;;8.52;100.00
75886;BME280;64561;44.018;10.144;2024-02-16T00:21:44;102126.53;;;8.53;100.00
75886;BME280;64561;44.018;10.144;2024-02-16T00:24:11;102118.06;;;8.54;100.00
75886;BME280;64561;44.018;10.144;2024-02-16T00:26:39;102105.78;;;8.47;100.00
75886;BME280;64561;44.018;10.144;2024-02-16T00:29:06;102106.94;;;8.52;100.00
75886;BME280;64561;44.018;10.144;2024-02-16T00:31:34;102099.66;;;8.43;100.00
75886;BME280;64561;44.018;10.144;2024-02-16T00:34:01;102088.59;;;8.43;100.00
75886;BME280;64561;44.018;10.144;2024-02-16T00:36:28;102099.13;;;8.49;100.00
75886;BME280;64561;44.018;10.144;2024-02-16T00:38:58;102109.88;;;8.43;100.00
75886;BME280;64561;44.018;10.144;2024-02-16T00:41:25;102094.09;;;8.36;100.00
75886;BME280;64561;44.018;10.144;2024-02-16T00:43:53;102101.53;;;8.31;100.00
75886;BME280;64561;44.018;10.144;2024-02-16T00:46:20;102098.00;;;8.29;100.00
75886;BME280;64561;44.018;10.144;2024-02-16T00:48:51;102094.41;;;8.25;100.00
75886;BME280;64561;44.018;10.144;2024-02-16T00:51:19;102096.25;;;8.28;100.00
75886;BME280;64561;44.018;10.144;2024-02-16T00:53:46;102094.41;;;8.25;100.00
75886;BME280;64561;44.018;10.144;2024-02-16T00:56:13;102105.00;;;8.17;100.00
75886;BME280;64561;44.018;10.144;2024-02-16T00:58:41;102093.75;;;8.13;100.00
75886;BME280;64561;44.018;10.144;2024-02-16T01:01:09;102098.69;;;8.10;100.00
75886;BME280;64561;44.018;10.144;2024-02-16T01:03:39;102102.97;;;8.11;100.00
75886;BME280;64561;44.018;10.144;2024-02-16T01:06:06;102109.13;;;8.15;100.00
75886;BME280;64561;44.018;10.144;2024-02-16T01:08:36;102105.81;;;8.16;100.00
75886;BME280;64561;44.018;10.144;2024-02-16T01:11:03;102116.59;;;8.12;100.00
75886;BME280;64561;44.018;10.144;2024-02-16T01:13:30;102099.59;;;7.96;100.00
75886;BME280;64561;44.018;10.144;2024-02-16T01:15:59;102118.59;;;8.01;100.00
75886;BME280;64561;44.018;10.144;2024-02-16T01:18:28;102105.66;;;7.98;100.00
75886;BME280;64561;44.018;10.144;2024-02-16T01:20:56;102102.94;;;7.95;100.00
75886;BME280;64561;44.018;10.144;2024-02-16T01:23:23;102100.13;;;7.90;100.00
75886;BME280;64561;44.018;10.144;2024-02-16T01:25:50;102105.34;;;7.92;100.00
75886;BME280;64561;44.018;10.144;2024-02-16T01:28:17;102099.72;;;7.83;100.00
75886;BME280;64561;44.018;10.144;2024-02-16T01:30:44;102107.53;;;7.86;100.00
75886;BME280;64561;44.018;10.144;2024-02-16T01:33:12;102102.00;;;7.78;100.00
75886;BME280;64561;44.018;10.144;2024-02-16T01:35:39;102083.41;;;7.64;100.00
75886;BME280;64561;44.018;10.144;2024-02-16T01:38:06;102088.84;;;7.70;100.00
75886;BME280;64561;44.018;10.144;2024-02-16T01:40:33;102091.41;;;7.70;100.00
75886;BME280;64561;44.018;10.144;2024-02-16T01:43:01;102089.72;;;7.71;100.00
75886;BME280;64561;44.018;10.144;2024-02-16T01:45:28;102083.59;;;7.67;100.00
75886;BME280;64561;44.018;10.144;2024-02-16T01:47:55;102063.63;;;7.60;100.00
75886;BME280;64561;44.018;10.144;2024-02-16T01:50:23;102080.06;;;7.65;100.00
75886;BME280;64561;44.018;10.144;2024-02-16T01:52:50;102074.69;;;7.61;100.00
75886;BME280;64561;44.018;10.144;2024-02-16T01:55:18;102082.09;;;7.56;100.00
75886;BME280;64561;44.018;10.144;2024-02-16T01:57:48;102065.44;;;7.46;100.00
75886;BME280;64561;44.018;10.144;2024-02-16T02:00:16;102074.66;;;7.44;100.00
75886;BME280;64561;44.018;10.144;2024-02-16T02:02:45;102060.69;;;7.38;100.00
75886;BME280;64561;44.018;10.144;2024-02-16T02:05:13;102071.22;;;7.44;100.00
75886;BME280;64561;44.018;10.144;2024-02-16T02:07:42;102059.25;;;7.43;100.00
75886;BME280;64561;44.018;10.144;2024-02-16T02:10:10;102060.00;;;7.40;100.00
75886;BME280;64561;44.018;10.144;2024-02-16T02:12:40;102061.63;;;7.40;100.00
75886;BME280;64561;44.018;10.144;2024-02-16T02:15:09;102054.72;;;7.37;100.00
75886;BME280;64561;44.018;10.144;2024-02-16T02:17:36;102049.38;;;7.32;100.00
75886;BME280;64561;44.018;10.144;2024-02-16T02:20:04;102036.47;;;7.29;100.00
75886;BME280;64561;44.018;10.144;2024-02-16T02:22:35;102058.03;;;7.36;100.00
75886;BME280;64561;44.018;10.144;2024-02-16T02:25:02;102047.69;;;7.33;100.00
75886;BME280;64561;44.018;10.144;2024-02-16T02:27:29;102038.13;;;7.29;100.00
75886;BME280;64561;44.018;10.144;2024-02-16T02:29:56;102035.75;;;7.32;100.00
75886;BME280;64561;44.018;10.144;2024-02-16T02:32:25;102049.88;;;7.42;100.00
75886;BME280;64561;44.018;10.144;2024-02-16T02:34:52;102046.47;;;7.41;100.00
75886;BME280;64561;44.018;10.144;2024-02-16T02:37:20;102037.25;;;7.28;100.00
75886;BME280;64561;44.018;10.144;2024-02-16T02:39:47;102045.25;;;7.35;100.00
75886;BME280;64561;44.018;10.144;2024-02-16T02:42:14;102042.78;;;7.36;100.00
75886;BME280;64561;44.018;10.144;2024-02-16T02:44:41;102021.16;;;7.44;100.00
75886;BME280;64561;44.018;10.144;2024-02-16T02:47:16;102029.44;;;7.40;100.00
75886;BME280;64561;44.018;10.144;2024-02-16T02:49:47;102025.94;;;7.23;100.00
75886;BME280;64561;44.018;10.144;2024-02-16T02:52:14;102019.97;;;7.23;100.00
75886;BME280;64561;44.018;10.144;2024-02-16T02:54:41;102019.78;;;7.20;100.00
75886;BME280;64561;44.018;10.144;2024-02-16T02:57:08;102022.94;;;7.16;100.00
75886;BME280;64561;44.018;10.144;2024-02-16T02:59:36;102000.31;;;7.05;100.00
75886;BME280;64561;44.018;10.144;2024-02-16T03:02:03;102012.75;;;7.16;100.00
75886;BME280;64561;44.018;10.144;2024-02-16T03:04:30;102010.38;;;7.19;100.00
75886;BME280;64561;44.018;10.144;2024-02-16T03:06:57;102001.69;;;7.15;100.00
75886;BME280;64561;44.018;10.144;2024-02-16T03:09:24;102009.84;;;7.24;100.00
75886;BME280;64561;44.018;10.144;2024-02-16T03:11:52;101997.06;;;7.23;100.00
75886;BME280;64561;44.018;10.144;2024-02-16T03:14:19;101985.38;;;7.26;100.00
75886;BME280;64561;44.018;10.144;2024-02-16T03:16:47;101987.75;;;7.23;100.00
75886;BME280;64561;44.018;10.144;2024-02-16T03:19:14;101992.84;;;7.23;100.00
75886;BME280;64561;44.018;10.144;2024-02-16T03:21:41;101999.31;;;7.18;100.00
75886;BME280;64561;44.018;10.144;2024-02-16T03:24:08;102000.47;;;7.23;100.00
75886;BME280;64561;44.018;10.144;2024-02-16T03:26:36;101997.59;;;7.17;100.00
75886;BME280;64561;44.018;10.144;2024-02-16T03:29:03;101996.59;;;7.15;100.00
75886;BME280;64561;44.018;10.144;2024-02-16T03:31:30;102000.13;;;7.17;100.00
75886;BME280;64561;44.018;10.144;2024-02-16T03:33:57;101994.00;;;7.14;100.00
75886;BME280;64561;44.018;10.144;2024-02-16T03:36:24;101990.13;;;7.20;100.00
75886;BME280;64561;44.018;10.144;2024-02-16T03:38:51;101993.06;;;7.28;100.00
75886;BME280;64561;44.018;10.144;2024-02-16T03:41:20;102000.00;;;7.30;100.00
75886;BME280;64561;44.018;10.144;2024-02-16T03:43:48;102004.06;;;7.27;100.00
75886;BME280;64561;44.018;10.144;2024-02-16T03:46:15;102004.00;;;7.25;100.00
75886;BME280;64561;44.018;10.144;2024-02-16T03:48:43;102008.91;;;7.22;100.00
75886;BME280;64561;44.018;10.144;2024-02-16T03:51:11;102003.31;;;7.13;100.00
75886;BME280;64561;44.018;10.144;2024-02-16T03:53:39;101983.38;;;7.06;100.00
75886;BME280;64561;44.018;10.144;2024-02-16T03:56:06;102003.53;;;7.18;100.00
75886;BME280;64561;44.018;10.144;2024-02-16T03:58:36;102001.00;;;7.18;100.00
75886;BME280;64561;44.018;10.144;2024-02-16T04:01:03;102017.31;;;7.21;100.00
75886;BME280;64561;44.018;10.144;2024-02-16T04:03:33;102023.47;;;7.25;100.00
75886;BME280;64561;44.018;10.144;2024-02-16T04:06:02;102018.19;;;7.22;100.00
75886;BME280;64561;44.018;10.144;2024-02-16T04:08:31;102020.84;;;7.23;100.00
75886;BME280;64561;44.018;10.144;2024-02-16T04:10:58;102010.56;;;7.22;100.00
75886;BME280;64561;44.018;10.144;2024-02-16T04:13:25;102018.13;;;7.20;100.00
75886;BME280;64561;44.018;10.144;2024-02-16T04:15:53;102012.22;;;7.21;100.00
75886;BME280;64561;44.018;10.144;2024-02-16T04:18:21;102011.13;;;7.16;100.00
75886;BME280;64561;44.018;10.144;2024-02-16T04:20:48;101998.38;;;7.01;100.00
75886;BME280;64561;44.018;10.144;2024-02-16T04:23:16;102000.13;;;7.02;100.00
75886;BME280;64561;44.018;10.144;2024-02-16T04:25:43;102004.41;;;7.03;100.00
75886;BME280;64561;44.018;10.144;2024-02-16T04:28:10;102011.81;;;7.14;100.00
75886;BME280;64561;44.018;10.144;2024-02-16T04:30:37;102017.06;;;7.17;100.00
75886;BME280;64561;44.018;10.144;2024-02-16T04:33:04;102018.00;;;7.19;100.00
75886;BME280;64561;44.018;10.144;2024-02-16T04:35:32;102015.56;;;7.20;100.00
75886;BME280;64561;44.018;10.144;2024-02-16T04:37:58;102014.78;;;7.21;100.00
75886;BME280;64561;44.018;10.144;2024-02-16T04:40:26;102009.44;;;7.17;100.00
75886;BME280;64561;44.018;10.144;2024-02-16T04:42:53;102010.84;;;7.12;100.00
75886;BME280;64561;44.018;10.144;2024-02-16T04:45:20;101994.19;;;7.02;100.00
75886;BME280;64561;44.018;10.144;2024-02-16T04:47:48;102019.97;;;7.08;100.00
75886;BME280;64561;44.018;10.144;2024-02-16T04:50:15;101997.59;;;7.02;100.00
75886;BME280;64561;44.018;10.144;2024-02-16T04:52:42;102005.91;;;7.15;100.00
75886;BME280;64561;44.018;10.144;2024-02-16T04:55:11;101998.97;;;7.12;100.00
75886;BME280;64561;44.018;10.144;2024-02-16T04:57:38;101992.22;;;7.13;100.00
75886;BME280;64561;44.018;10.144;2024-02-16T05:00:06;101999.50;;;7.21;100.00
75886;BME280;64561;44.018;10.144;2024-02-16T05:02:33;101997.75;;;7.20;100.00
75886;BME280;64561;44.018;10.144;2024-02-16T05:05:00;101995.28;;;7.22;100.00
75886;BME280;64561;44.018;10.144;2024-02-16T05:07:30;101984.50;;;7.11;100.00
75886;BME280;64561;44.018;10.144;2024-02-16T05:10:08;101999.84;;;7.13;100.00
75886;BME280;64561;44.018;10.144;2024-02-16T05:12:36;101994.69;;;7.11;100.00
75886;BME280;64561;44.018;10.144;2024-02-16T05:15:04;101994.06;;;7.15;100.00
75886;BME280;64561;44.018;10.144;2024-02-16T05:17:32;101972.84;;;7.00;100.00
75886;BME280;64561;44.018;10.144;2024-02-16T05:20:00;101981.69;;;7.06;100.00
75886;BME280;64561;44.018;10.144;2024-02-16T05:22:27;101989.31;;;7.06;100.00
75886;BME280;64561;44.018;10.144;2024-02-16T05:24:55;101976.34;;;7.02;100.00
75886;BME280;64561;44.018;10.144;2024-02-16T05:27:23;101992.16;;;7.11;100.00
75886;BME280;64561;44.018;10.144;2024-02-16T05:29:50;101990.13;;;7.20;100.00
75886;BME280;64561;44.018;10.144;2024-02-16T05:32:19;101980.94;;;7.07;100.00
75886;BME280;64561;44.018;10.144;2024-02-16T05:34:46;101991.28;;;7.10;100.00
75886;BME280;64561;44.018;10.144;2024-02-16T05:37:13;101988.56;;;7.07;100.00
75886;BME280;64561;44.018;10.144;2024-02-16T05:39:42;101982.78;;;6.95;100.00
75886;BME280;64561;44.018;10.144;2024-02-16T05:42:24;101993.53;;;7.06;100.00
75886;BME280;64561;44.018;10.144;2024-02-16T05:44:51;101992.78;;;7.07;100.00
75886;BME280;64561;44.018;10.144;2024-02-16T05:47:18;101986.97;;;7.09;100.00
75886;BME280;64561;44.018;10.144;2024-02-16T05:49:46;101986.09;;;7.09;100.00
75886;BME280;64561;44.018;10.144;2024-02-16T05:52:13;101977.50;;;7.07;100.00
75886;BME280;64561;44.018;10.144;2024-02-16T05:54:47;101993.03;;;7.12;100.00
75886;BME280;64561;44.018;10.144;2024-02-16T05:57:16;101997.06;;;7.08;100.00
75886;BME280;64561;44.018;10.144;2024-02-16T05:59:44;101995.03;;;7.02;100.00
75886;BME280;64561;44.018;10.144;2024-02-16T06:02:12;101988.81;;;6.97;100.00
75886;BME280;64561;44.018;10.144;2024-02-16T06:04:39;101983.66;;;6.96;100.00
75886;BME280;64561;44.018;10.144;2024-02-16T06:07:07;101980.06;;;6.92;100.00
75886;BME280;64561;44.018;10.144;2024-02-16T06:09:35;101974.69;;;6.87;100.00
75886;BME280;64561;44.018;10.144;2024-02-16T06:12:04;101995.66;;;6.98;100.00
75886;BME280;64561;44.018;10.144;2024-02-16T06:14:32;102002.03;;;6.92;100.00
75886;BME280;64561;44.018;10.144;2024-02-16T06:16:59;102008.63;;;6.88;100.00
75886;BME280;64561;44.018;10.144;2024-02-16T06:19:30;102012.22;;;6.92;100.00
75886;BME280;64561;44.018;10.144;2024-02-16T06:21:57;102021.88;;;6.97;100.00
75886;BME280;64561;44.018;10.144;2024-02-16T06:24:25;102012.56;;;6.98;100.00
75886;BME280;64561;44.018;10.144;2024-02-16T06:26:52;102018.28;;;6.94;100.00
75886;BME280;64561;44.018;10.144;2024-02-16T06:29:23;102023.56;;;6.97;100.00
75886;BME280;64561;44.018;10.144;2024-02-16T06:31:58;102027.25;;;7.02;100.00
75886;BME280;64561;44.018;10.144;2024-02-16T06:34:25;102028.03;;;7.01;100.00
75886;BME280;64561;44.018;10.144;2024-02-16T06:36:53;102037.50;;;7.03;100.00
75886;BME280;64561;44.018;10.144;2024-02-16T06:39:20;102036.44;;;7.00;100.00
75886;BME280;64561;44.018;10.144;2024-02-16T06:41:47;102033.56;;;6.94;100.00
75886;BME280;64561;44.018;10.144;2024-02-16T06:44:16;102034.44;;;6.94;100.00
75886;BME280;64561;44.018;10.144;2024-02-16T06:46:48;102028.47;;;6.94;100.00
75886;BME280;64561;44.018;10.144;2024-02-16T06:49:15;102041.66;;;7.01;100.00
75886;BME280;64561;44.018;10.144;2024-02-16T06:51:42;102036.28;;;6.97;100.00
75886;BME280;64561;44.018;10.144;2024-02-16T06:54:12;102039.88;;;7.00;100.00
75886;BME280;64561;44.018;10.144;2024-02-16T06:56:39;102028.03;;;7.01;100.00
75886;BME280;64561;44.018;10.144;2024-02-16T06:59:06;102025.59;;;7.02;100.00
75886;BME280;64561;44.018;10.144;2024-02-16T07:01:33;102028.31;;;7.05;100.00
75886;BME280;64561;44.018;10.144;2024-02-16T07:04:00;102035.59;;;7.14;100.00
75886;BME280;64561;44.018;10.144;2024-02-16T07:06:29;102023.03;;;7.17;100.00
75886;BME280;64561;44.018;10.144;2024-02-16T07:08:56;102023.47;;;7.25;100.00
75886;BME280;64561;44.018;10.144;2024-02-16T07:11:24;102018.97;;;7.36;100.00
75886;BME280;64561;44.018;10.144;2024-02-16T07:13:51;102023.63;;;7.43;100.00
75886;BME280;64561;44.018;10.144;2024-02-16T07:16:18;102018.97;;;7.50;100.00
75886;BME280;64561;44.018;10.144;2024-02-16T07:18:45;102020.00;;;7.54;100.00
75886;BME280;64561;44.018;10.144;2024-02-16T07:21:13;102013.34;;;7.56;100.00
75886;BME280;64561;44.018;10.144;2024-02-16T07:23:40;102003.06;;;7.54;100.00
75886;BME280;64561;44.018;10.144;2024-02-16T07:26:07;102009.72;;;7.67;100.00
75886;BME280;64561;44.018;10.144;2024-02-16T07:28:35;102030.47;;;7.90;100.00
75886;BME280;64561;44.018;10.144;2024-02-16T07:31:02;102014.38;;;7.91;100.00
75886;BME280;64561;44.018;10.144;2024-02-16T07:33:30;102028.72;;;8.05;100.00
75886;BME280;64561;44.018;10.144;2024-02-16T07:35:57;102017.72;;;8.06;100.00
75886;BME280;64561;44.018;10.144;2024-02-16T07:38:25;102029.47;;;8.19;100.00
75886;BME280;64561;44.018;10.144;2024-02-16T07:40:52;102031.66;;;8.28;100.00
75886;BME280;64561;44.018;10.144;2024-02-16T07:43:19;102035.44;;;8.36;100.00
75886;BME280;64561;44.018;10.144;2024-02-16T07:45:47;102041.16;;;8.46;100.00
75886;BME280;64561;44.018;10.144;2024-02-16T07:48:14;102026.81;;;8.49;100.00
75886;BME280;64561;44.018;10.144;2024-02-16T07:50:41;102028.22;;;8.60;100.00
75886;BME280;64561;44.018;10.144;2024-02-16T07:53:08;102039.06;;;8.72;100.00
75886;BME280;64561;44.018;10.144;2024-02-16T07:55:38;102036.81;;;8.78;100.00
75886;BME280;64561;44.018;10.144;2024-02-16T07:58:05;102038.50;;;8.94;100.00
75886;BME280;64561;44.018;10.144;2024-02-16T08:00:33;102031.84;;;8.98;100.00
75886;BME280;64561;44.018;10.144;2024-02-16T08:03:00;102040.28;;;9.13;100.00
75886;BME280;64561;44.018;10.144;2024-02-16T08:05:28;102040.50;;;9.18;100.00
75886;BME280;64561;44.018;10.144;2024-02-16T08:07:55;102053.44;;;9.21;100.00
75886;BME280;64561;44.018;10.144;2024-02-16T08:10:23;102056.03;;;9.22;100.00
75886;BME280;64561;44.018;10.144;2024-02-16T08:12:52;102054.66;;;9.29;100.00
75886;BME280;64561;44.018;10.144;2024-02-16T08:15:19;102062.75;;;9.38;100.00
75886;BME280;64561;44.018;10.144;2024-02-16T08:17:51;102057.38;;;9.50;100.00
75886;BME280;64561;44.018;10.144;2024-02-16T08:20:18;102053.09;;;9.49;100.00
75886;BME280;64561;44.018;10.144;2024-02-16T08:22:46;102057.47;;;9.51;100.00
75886;BME280;64561;44.018;10.144;2024-02-16T08:25:13;102044.53;;;9.48;100.00
75886;BME280;64561;44.018;10.144;2024-02-16T08:27:40;102038.72;;;9.69;100.00
75886;BME280;64561;44.018;10.144;2024-02-16T08:30:08;102049.00;;;9.70;100.00
75886;BME280;64561;44.018;10.144;2024-02-16T08:32:39;102058.69;;;9.77;100.00
75886;BME280;64561;44.018;10.144;2024-02-16T08:35:06;102054.47;;;9.96;100.00
75886;BME280;64561;44.018;10.144;2024-02-16T08:37:34;102059.50;;;10.14;100.00
75886;BME280;64561;44.018;10.144;2024-02-16T08:40:01;102058.72;;;10.15;100.00
75886;BME280;64561;44.018;10.144;2024-02-16T08:42:31;102051.25;;;10.19;100.00
75886;BME280;64561;44.018;10.144;2024-02-16T08:44:58;102059.31;;;10.27;100.00
75886;BME280;64561;44.018;10.144;2024-02-16T08:47:27;102051.78;;;10.30;100.00
75886;BME280;64561;44.018;10.144;2024-02-16T08:49:54;102065.94;;;10.41;100.00
75886;BME280;64561;44.018;10.144;2024-02-16T08:52:22;102062.56;;;10.42;100.00
75886;BME280;64561;44.018;10.144;2024-02-16T08:54:49;102061.63;;;10.60;100.00
75886;BME280;64561;44.018;10.144;2024-02-16T08:57:16;102063.63;;;10.67;100.00
75886;BME280;64561;44.018;10.144;2024-02-16T08:59:45;102067.53;;;10.78;100.00
75886;BME280;64561;44.018;10.144;2024-02-16T09:02:13;102047.75;;;10.74;100.00
75886;BME280;64561;44.018;10.144;2024-02-16T09:04:40;102060.47;;;10.72;100.00
75886;BME280;64561;44.018;10.144;2024-02-16T09:07:07;102059.50;;;10.70;100.00
75886;BME280;64561;44.018;10.144;2024-02-16T09:09:34;102058.59;;;10.68;100.00
75886;BME280;64561;44.018;10.144;2024-02-16T09:12:02;102043.00;;;10.64;100.00
75886;BME280;64561;44.018;10.144;2024-02-16T09:14:29;102051.81;;;10.70;100.00
75886;BME280;64561;44.018;10.144;2024-02-16T09:16:56;102050.31;;;10.74;100.00
75886;BME280;64561;44.018;10.144;2024-02-16T09:19:23;102051.97;;;10.73;100.00
75886;BME280;64561;44.018;10.144;2024-02-16T09:21:51;102070.34;;;10.84;100.00
75886;BME280;64561;44.018;10.144;2024-02-16T09:24:21;102067.94;;;10.87;99.68
75886;BME280;64561;44.018;10.144;2024-02-16T09:26:48;102055.94;;;10.86;98.66
75886;BME280;64561;44.018;10.144;2024-02-16T09:29:15;102056.06;;;10.89;98.07
75886;BME280;64561;44.018;10.144;2024-02-16T09:31:43;102055.38;;;10.93;98.42
75886;BME280;64561;44.018;10.144;2024-02-16T09:34:11;102051.22;;;10.95;98.80
75886;BME280;64561;44.018;10.144;2024-02-16T09:36:38;102061.75;;;11.03;99.50
75886;BME280;64561;44.018;10.144;2024-02-16T09:39:05;102062.00;;;11.09;99.96
75886;BME280;64561;44.018;10.144;2024-02-16T09:41:34;102056.34;;;11.16;100.00
75886;BME280;64561;44.018;10.144;2024-02-16T09:44:04;102051.00;;;11.31;99.28
75886;BME280;64561;44.018;10.144;2024-02-16T09:46:33;102062.22;;;11.35;97.42
75886;BME280;64561;44.018;10.144;2024-02-16T09:49:04;102056.59;;;11.43;97.30
75886;BME280;64561;44.018;10.144;2024-02-16T09:51:35;102052.72;;;11.53;96.90
75886;BME280;64561;44.018;10.144;2024-02-16T09:54:03;102061.72;;;11.64;96.35
75886;BME280;64561;44.018;10.144;2024-02-16T09:56:31;102063.81;;;11.75;94.56
75886;BME280;64561;44.018;10.144;2024-02-16T09:58:58;102065.63;;;11.98;90.12
75886;BME280;64561;44.018;10.144;2024-02-16T10:01:26;102067.66;;;12.07;88.77
75886;BME280;64561;44.018;10.144;2024-02-16T10:03:53;102058.41;;;12.12;85.95
75886;BME280;64561;44.018;10.144;2024-02-16T10:06:20;102046.59;;;12.16;82.26
75886;BME280;64561;44.018;10.144;2024-02-16T10:08:52;102058.06;;;12.03;83.05
75886;BME280;64561;44.018;10.144;2024-02-16T10:11:21;102052.66;;;11.95;82.49
75886;BME280;64561;44.018;10.144;2024-02-16T10:16:22;102067.88;;;12.13;79.25
75886;BME280;64561;44.018;10.144;2024-02-16T10:18:52;102063.22;;;12.25;80.76
75886;BME280;64561;44.018;10.144;2024-02-16T10:21:29;102052.56;;;12.39;76.92
75886;BME280;64561;44.018;10.144;2024-02-16T10:24:08;102066.88;;;12.56;79.93
75886;BME280;64561;44.018;10.144;2024-02-16T10:26:40;102065.41;;;12.63;80.16
75886;BME280;64561;44.018;10.144;2024-02-16T10:29:09;102063.78;;;12.65;78.86
75886;BME280;64561;44.018;10.144;2024-02-16T10:31:50;102074.25;;;12.71;79.27
75886;BME280;64561;44.018;10.144;2024-02-16T10:34:19;102079.41;;;12.71;78.63
75886;BME280;64561;44.018;10.144;2024-02-16T10:36:57;102086.59;;;12.81;81.03
75886;BME280;64561;44.018;10.144;2024-02-16T10:39:34;102089.34;;;12.86;83.09
75886;BME280;64561;44.018;10.144;2024-02-16T10:42:05;102070.63;;;12.90;83.12
75886;BME280;64561;44.018;10.144;2024-02-16T10:44:34;102080.22;;;12.94;83.77
75886;BME280;64561;44.018;10.144;2024-02-16T10:47:02;102083.09;;;13.03;83.70
75886;BME280;64561;44.018;10.144;2024-02-16T10:49:32;102066.44;;;12.92;81.75
75886;BME280;64561;44.018;10.144;2024-02-16T10:51:59;102080.31;;;12.97;81.82
75886;BME280;64561;44.018;10.144;2024-02-16T10:54:30;102075.88;;;12.93;81.96
75886;BME280;64561;44.018;10.144;2024-02-16T10:56:59;102079.28;;;12.92;82.16
75886;BME280;64561;44.018;10.144;2024-02-16T10:59:40;102088.81;;;12.96;77.81
75886;BME280;64561;44.018;10.144;2024-02-16T11:02:08;102088.78;;;12.94;76.26
75886;BME280;64561;44.018;10.144;2024-02-16T11:04:38;102093.94;;;12.94;78.03
75886;BME280;64561;44.018;10.144;2024-02-16T11:07:14;102083.69;;;12.96;78.99
75886;BME280;64561;44.018;10.144;2024-02-16T11:09:43;102083.88;;;13.02;76.85
75886;BME280;64561;44.018;10.144;2024-02-16T11:12:14;102084.63;;;12.98;78.28
75886;BME280;64561;44.018;10.144;2024-02-16T11:14:46;102078.19;;;12.85;78.08
75886;BME280;64561;44.018;10.144;2024-02-16T11:17:15;102081.84;;;12.92;77.27
75886;BME280;64561;44.018;10.144;2024-02-16T11:19:44;102068.22;;;12.94;75.37
75886;BME280;64561;44.018;10.144;2024-02-16T11:22:18;102061.63;;;13.02;76.26
75886;BME280;64561;44.018;10.144;2024-02-16T11:24:48;102058.97;;;12.99;76.95
75886;BME280;64561;44.018;10.144;2024-02-16T11:27:17;102047.81;;;12.99;76.97
75886;BME280;64561;44.018;10.144;2024-02-16T11:29:49;102040.66;;;12.90;77.06
75886;BME280;64561;44.018;10.144;2024-02-16T11:32:20;102045.81;;;12.90;77.24
75886;BME280;64561;44.018;10.144;2024-02-16T11:34:48;102032.25;;;12.94;76.45
75886;BME280;64561;44.018;10.144;2024-02-16T11:37:16;102026.16;;;12.91;76.55
75886;BME280;64561;44.018;10.144;2024-02-16T11:39:44;102026.06;;;12.88;77.76
75886;BME280;64561;44.018;10.144;2024-02-16T11:42:19;102028.03;;;12.96;77.83
75886;BME280;64561;44.018;10.144;2024-02-16T11:44:51;102024.78;;;13.02;77.88
75886;BME280;64561;44.018;10.144;2024-02-16T11:47:22;102013.75;;;13.04;79.89
75886;BME280;64561;44.018;10.144;2024-02-16T11:50:08;102015.72;;;13.12;78.79
75886;BME280;64561;44.018;10.144;2024-02-16T11:52:39;102013.25;;;13.15;77.91
75886;BME280;64561;44.018;10.144;2024-02-16T11:55:11;102011.75;;;13.21;79.51
75886;BME280;64561;44.018;10.144;2024-02-16T11:57:39;102011.22;;;13.32;75.91
75886;BME280;64561;44.018;10.144;2024-02-16T12:00:07;102014.47;;;13.26;78.01
75886;BME280;64561;44.018;10.144;2024-02-16T12:02:38;102002.56;;;13.28;76.89
75886;BME280;64561;44.018;10.144;2024-02-16T12:05:05;102015.69;;;13.37;78.13
75886;BME280;64561;44.018;10.144;2024-02-16T12:07:36;102020.81;;;13.36;77.80
75886;BME280;64561;44.018;10.144;2024-02-16T12:10:06;102014.06;;;13.39;77.34
75886;BME280;64561;44.018;10.144;2024-02-16T12:12:33;102025.72;;;13.57;77.21
75886;BME280;64561;44.018;10.144;2024-02-16T12:15:02;102024.50;;;13.72;81.50
75886;BME280;64561;44.018;10.144;2024-02-16T12:17:32;102024.44;;;13.71;82.71
75886;BME280;64561;44.018;10.144;2024-02-16T12:19:59;102028.53;;;13.64;83.43
75886;BME280;64561;44.018;10.144;2024-02-16T12:22:27;102028.34;;;13.58;83.15
75886;BME280;64561;44.018;10.144;2024-02-16T12:24:54;102019.59;;;13.52;83.88
75886;BME280;64561;44.018;10.144;2024-02-16T12:27:21;102033.03;;;13.43;83.81
75886;BME280;64561;44.018;10.144;2024-02-16T12:29:48;102028.72;;;13.42;84.33
75886;BME280;64561;44.018;10.144;2024-02-16T12:32:15;102029.31;;;13.35;83.83
75886;BME280;64561;44.018;10.144;2024-02-16T12:34:46;102029.22;;;13.32;84.38
75886;BME280;64561;44.018;10.144;2024-02-16T12:37:14;102030.16;;;13.34;81.43
75886;BME280;64561;44.018;10.144;2024-02-16T12:39:42;102033.31;;;13.25;81.55
75886;BME280;64561;44.018;10.144;2024-02-16T12:42:09;102021.94;;;13.18;79.27
75886;BME280;64561;44.018;10.144;2024-02-16T12:44:36;102023.38;;;13.10;80.52
75886;BME280;64561;44.018;10.144;2024-02-16T12:47:03;102022.50;;;13.10;81.99
75886;BME280;64561;44.018;10.144;2024-02-16T12:49:31;102026.03;;;13.13;82.15